Weather History for KMCD - October, 2014

Change the Weather History Date:

Sunday, October 5, 2014

  Actual Average Record
Temperature  
Mean Temperature 42 °F -  
Max Temperature 46 °F 56 °F 82 °F (2005)
Min Temperature 39 °F 43 °F 32 °F (1980)
Degree Days  
Heating Degree Days 22    
Moisture  
Dew Point 39 °F    
Average Humidity 86    
Maximum Humidity 97    
Minimum Humidity 67    
Precipitation  
Precipitation 0.00 in - - ()
Sea Level Pressure  
Sea Level Pressure 29.52 in    
Wind  
Wind Speed 9 mph (WSW)    
Max Wind Speed 18 mph    
Max Gust Speed 32 mph    
Visibility 10 miles    
Events Rain    
Averages and records for this station are not official NWS values.
T = Trace of Precipitation, MM = Missing Value Source: NWS Daily Summary

Daily Weather History Graph

Daily Weather History Graph

Search for Another Location

Airport or City:

Trip Planner

Search our weather history database for the weather conditions in past years. The results will help you decide how hot, cold, wet, or windy it might be!

Date:

Astronomy

Oct. 05, 2014 Rise Set
Actual Time 7:42 AM EDT 7:11 PM EDT
Civil Twilight 7:12 AM EDT 7:40 PM EDT
Nautical Twilight 6:37 AM EDT 8:15 PM EDT
Astronomical Twilight 6:02 AM EDT 8:50 PM EDT
Moon 5:36 PM EDT (10/5) 4:08 AM EDT (10/5)
Length of Visible Light 12h 28m
Length of Day
11h 28m
Waxing Gibbous, 89% of the Moon is Illuminated
Oct 5
Waxing Gibbous
Oct 8
Full
Oct 15
Last Quarter
Oct 23
New
Oct 30
First Quarter

Hourly Weather History & Observations

Time (EDT) Temp. Windchill Dew Point Humidity Pressure Visibility Wind Dir Wind Speed Gust Speed Precip Events Conditions
12:18 AM 39.6 °F 35.4 °F 38.1 °F 95% 29.50 in 10.0 mi NW 5.8 mph - N/A Rain Light Rain
12:37 AM 40.1 °F 35.3 °F 38.5 °F 94% 29.50 in 10.0 mi WNW 6.9 mph - N/A Rain Light Rain
12:57 AM 39.7 °F 34.3 °F 38.7 °F 96% 29.50 in 10.0 mi NW 8.1 mph - N/A Rain Light Rain
1:18 AM 40.1 °F 34.7 °F 39.2 °F 97% 29.50 in 10.0 mi WNW 8.1 mph - N/A Rain Light Rain
1:37 AM 40.6 °F 35.4 °F 39.4 °F 95% 29.49 in 10.0 mi WNW 8.1 mph - N/A   Overcast
1:57 AM 41.0 °F 35.2 °F 39.6 °F 95% 29.49 in 10.0 mi WNW 9.2 mph - N/A   Overcast
2:18 AM 41.0 °F 36.4 °F 39.4 °F 94% 29.49 in 10.0 mi West 6.9 mph - N/A Rain Light Rain
2:37 AM 41.2 °F 35.0 °F 40.1 °F 96% 29.49 in 10.0 mi WNW 10.4 mph - N/A   Overcast
2:57 AM 41.2 °F 36.0 °F 39.9 °F 95% 29.49 in 7.0 mi WNW 8.1 mph - N/A Rain Light Rain
3:18 AM 41.4 °F 36.2 °F 40.1 °F 95% 29.48 in 7.0 mi West 8.1 mph - N/A Rain Light Rain
3:37 AM 41.4 °F 37.6 °F 40.1 °F 95% 29.48 in 10.0 mi West 5.8 mph - N/A   Overcast
3:58 AM 41.9 °F 39.0 °F 40.3 °F 94% 29.47 in 10.0 mi WNW 4.6 mph - N/A   Overcast
4:18 AM 42.1 °F 39.2 °F 40.5 °F 94% 29.47 in 10.0 mi NW 4.6 mph - N/A   Overcast
4:37 AM 42.3 °F 37.3 °F 40.6 °F 94% 29.47 in 10.0 mi WNW 8.1 mph - N/A   Overcast
4:58 AM 42.8 °F 36.6 °F 40.6 °F 92% 29.48 in 10.0 mi WNW 11.5 mph - N/A   Light Drizzle
5:17 AM 42.3 °F 38.6 °F 41.2 °F 96% 29.48 in 5.0 mi WNW 5.8 mph - N/A   Overcast
5:37 AM 41.9 °F 35.4 °F 40.5 °F 95% 29.49 in 10.0 mi WNW 11.5 mph 16.1 mph N/A   Overcast
5:58 AM 41.9 °F 37.5 °F 40.3 °F 94% 29.49 in 10.0 mi WNW 6.9 mph - N/A   Overcast
6:17 AM 42.1 °F 35.7 °F 39.9 °F 92% 29.49 in 10.0 mi WNW 11.5 mph - N/A   Overcast
6:37 AM 42.4 °F 35.7 °F 40.1 °F 91% 29.50 in 10.0 mi WNW 12.7 mph 17.3 mph N/A   Overcast
6:58 AM 42.3 °F 36.3 °F 39.7 °F 91% 29.50 in 10.0 mi NW 10.4 mph - N/A   Overcast
7:17 AM 41.5 °F 37.1 °F 39.4 °F 92% 29.50 in 10.0 mi NW 6.9 mph - N/A   Overcast
7:37 AM 41.9 °F 36.3 °F 39.2 °F 90% 29.51 in 10.0 mi NW 9.2 mph - N/A   Overcast
7:58 AM 41.9 °F 38.2 °F 39.6 °F 91% 29.51 in 10.0 mi NW 5.8 mph - N/A   Overcast
8:17 AM 42.1 °F 38.4 °F 39.6 °F 91% 29.51 in 10.0 mi NW 5.8 mph - N/A   Overcast
8:38 AM 42.1 °F 38.4 °F 40.1 °F 93% 29.51 in 10.0 mi NW 5.8 mph - N/A   Overcast
8:58 AM 42.4 °F - 40.1 °F 91% 29.51 in 10.0 mi Calm Calm - N/A   Overcast
9:17 AM 42.6 °F 40.9 °F 40.3 °F 91% 29.51 in 10.0 mi WNW 3.5 mph - N/A   Overcast
9:38 AM 43.3 °F 40.7 °F 41.0 °F 91% 29.52 in 10.0 mi WNW 4.6 mph - N/A   Overcast
9:58 AM 45.0 °F 40.6 °F 39.7 °F 82% 29.52 in 10.0 mi WSW 8.1 mph 17.3 mph N/A   Overcast
10:17 AM 45.7 °F 40.6 °F 40.1 °F 81% 29.52 in 10.0 mi WSW 10.4 mph 17.3 mph N/A   Overcast
10:38 AM 45.3 °F 39.7 °F 40.8 °F 84% 29.52 in 10.0 mi SW 11.5 mph 23.0 mph N/A Rain Light Rain
10:57 AM 43.7 °F 36.9 °F 40.8 °F 90% 29.52 in 4.0 mi WSW 13.8 mph 21.9 mph N/A Rain Light Rain
11:17 AM 43.7 °F 38.1 °F 39.9 °F 87% 29.52 in 7.0 mi WSW 10.4 mph 23.0 mph N/A Rain Light Rain
11:38 AM 45.1 °F 39.1 °F 40.5 °F 84% 29.52 in 10.0 mi WSW 12.7 mph 26.5 mph N/A Rain Light Rain
11:57 AM 45.9 °F 38.8 °F 39.4 °F 78% 29.52 in 10.0 mi WSW 17.3 mph 24.2 mph N/A   Overcast
12:18 PM 45.5 °F 38.3 °F 39.2 °F 79% 29.52 in 10.0 mi SW 17.3 mph 25.3 mph N/A   Overcast
12:38 PM 44.1 °F 37.1 °F 39.4 °F 84% 29.53 in 5.0 mi WSW 15.0 mph 32.2 mph N/A Rain Light Rain
12:57 PM 45.0 °F 37.4 °F 39.4 °F 81% 29.52 in 10.0 mi SW 18.4 mph 24.2 mph N/A   Overcast
1:18 PM 44.6 °F 39.7 °F 40.3 °F 85% 29.52 in 10.0 mi SW 9.2 mph 21.9 mph N/A Rain Light Rain
1:38 PM 45.5 °F 40.3 °F 39.4 °F 79% 29.52 in 10.0 mi SW 10.4 mph 23.0 mph N/A   Overcast
1:57 PM 44.8 °F 39.0 °F 38.3 °F 78% 29.52 in 10.0 mi SSW 11.5 mph 21.9 mph N/A   Overcast
2:18 PM 44.8 °F 39.9 °F 38.5 °F 79% 29.51 in 10.0 mi SW 9.2 mph 20.7 mph N/A   Overcast
2:37 PM 45.5 °F 40.8 °F 38.3 °F 76% 29.51 in 10.0 mi SW 9.2 mph 18.4 mph N/A   Overcast
2:58 PM 45.1 °F 38.8 °F 39.0 °F 79% 29.51 in 10.0 mi South 13.8 mph 20.7 mph N/A   Overcast
3:18 PM 45.5 °F 39.6 °F 38.8 °F 78% 29.51 in 10.0 mi SSW 12.7 mph 21.9 mph N/A   Overcast
3:37 PM 45.1 °F 39.1 °F 39.4 °F 80% 29.51 in 10.0 mi South 12.7 mph 23.0 mph N/A   Overcast
3:58 PM 45.1 °F 39.1 °F 39.9 °F 82% 29.52 in 10.0 mi SSW 12.7 mph 19.6 mph N/A   Overcast
4:18 PM 45.5 °F 41.3 °F 39.4 °F 79% 29.52 in 10.0 mi SSW 8.1 mph 21.9 mph N/A   Overcast
4:37 PM 46.0 °F 39.6 °F 38.3 °F 74% 29.52 in 10.0 mi SSW 15.0 mph 24.2 mph N/A   Overcast
4:58 PM 45.7 °F 39.5 °F 35.8 °F 68% 29.52 in 10.0 mi SSW 13.8 mph 24.2 mph N/A   Overcast
5:18 PM 45.0 °F 39.3 °F 35.4 °F 69% 29.52 in 10.0 mi SSW 11.5 mph 20.7 mph N/A   Overcast
5:38 PM 44.6 °F 38.8 °F 36.0 °F 72% 29.53 in 10.0 mi South 11.5 mph 19.6 mph N/A Rain Light Rain
5:58 PM 45.0 °F 39.3 °F 36.1 °F 71% 29.53 in 10.0 mi SSW 11.5 mph 19.6 mph N/A   Overcast
6:18 PM 45.5 °F 39.2 °F 36.0 °F 69% 29.53 in 10.0 mi South 13.8 mph 23.0 mph N/A   Overcast
6:38 PM 45.5 °F 40.3 °F 35.6 °F 68% 29.53 in 10.0 mi South 10.4 mph 23.0 mph N/A   Overcast
6:58 PM 45.7 °F 40.2 °F 35.2 °F 67% 29.53 in 10.0 mi South 11.5 mph 24.2 mph N/A   Overcast
7:17 PM 45.7 °F 39.1 °F 35.4 °F 67% 29.53 in 10.0 mi South 15.0 mph 25.3 mph N/A   Overcast
7:38 PM 45.5 °F 38.6 °F 35.6 °F 68% 29.53 in 10.0 mi SSW 16.1 mph 27.6 mph N/A Rain Light Rain
7:58 PM 43.5 °F 35.8 °F 37.0 °F 78% 29.55 in 5.0 mi SSW 17.3 mph 28.8 mph N/A   Unknown
8:17 PM 43.2 °F 35.6 °F 37.2 °F 80% 29.55 in 10.0 mi SSW 16.1 mph 26.5 mph N/A Rain Light Rain
8:38 PM 43.2 °F 35.9 °F 37.8 °F 81% 29.55 in 10.0 mi SSW 15.0 mph 23.0 mph N/A Rain Light Rain
8:58 PM 43.0 °F 41.3 °F 39.0 °F 86% 29.56 in 7.0 mi NNW 3.5 mph - N/A Rain Light Rain
9:17 PM 41.9 °F - 38.3 °F 87% 29.56 in 10.0 mi Calm Calm - N/A   Overcast
9:38 PM 41.4 °F - 40.3 °F 96% 29.57 in 10.0 mi Calm Calm - N/A   Overcast
9:58 PM 41.2 °F - 40.1 °F 96% 29.56 in 10.0 mi Calm Calm - N/A   Overcast
10:18 PM 41.0 °F 37.1 °F 39.9 °F 96% 29.56 in 10.0 mi SE 5.8 mph - N/A   Overcast
10:38 PM 41.4 °F 37.6 °F 40.1 °F 95% 29.56 in 10.0 mi SE 5.8 mph - N/A   Light Drizzle
10:57 PM 42.8 °F 37.0 °F 41.0 °F 93% 29.56 in 10.0 mi SSW 10.4 mph 16.1 mph N/A Rain Light Rain
11:18 PM 43.0 °F 38.2 °F 41.2 °F 93% 29.55 in 10.0 mi SSW 8.1 mph - N/A   Overcast
11:38 PM 42.8 °F 37.0 °F 40.5 °F 91% 29.55 in 10.0 mi SSW 10.4 mph 20.7 mph N/A Rain Light Rain
11:57 PM 43.0 °F 36.8 °F 41.2 °F 93% 29.55 in 10.0 mi South 11.5 mph 18.4 mph N/A Rain Light Rain